sensor_id;sensor_type;location;lat;lon;timestamp;P1;durP1;ratioP1;P2;durP2;ratioP2
10174;SDS011;18221;38.704;0.152;2022-08-21T00:08:18;4.80;;;2.70;;
10174;SDS011;18221;38.704;0.152;2022-08-21T00:10:47;4.47;;;2.83;;
10174;SDS011;18221;38.704;0.152;2022-08-21T00:13:17;6.07;;;2.50;;
10174;SDS011;18221;38.704;0.152;2022-08-21T00:15:46;4.37;;;2.50;;
10174;SDS011;18221;38.704;0.152;2022-08-21T00:18:17;4.80;;;2.60;;
10174;SDS011;18221;38.704;0.152;2022-08-21T00:20:45;4.27;;;2.70;;
10174;SDS011;18221;38.704;0.152;2022-08-21T00:23:14;4.27;;;2.77;;
10174;SDS011;18221;38.704;0.152;2022-08-21T00:25:44;3.43;;;2.43;;
10174;SDS011;18221;38.704;0.152;2022-08-21T00:28:12;5.53;;;2.57;;
10174;SDS011;18221;38.704;0.152;2022-08-21T00:30:42;4.93;;;2.60;;
10174;SDS011;18221;38.704;0.152;2022-08-21T00:33:14;5.37;;;2.67;;
10174;SDS011;18221;38.704;0.152;2022-08-21T00:35:42;5.87;;;2.80;;
10174;SDS011;18221;38.704;0.152;2022-08-21T00:38:10;4.00;;;2.53;;
10174;SDS011;18221;38.704;0.152;2022-08-21T00:40:46;5.03;;;2.80;;
10174;SDS011;18221;38.704;0.152;2022-08-21T00:43:18;4.50;;;2.53;;
10174;SDS011;18221;38.704;0.152;2022-08-21T00:45:49;3.77;;;2.47;;
10174;SDS011;18221;38.704;0.152;2022-08-21T00:48:19;6.60;;;2.70;;
10174;SDS011;18221;38.704;0.152;2022-08-21T00:50:48;4.43;;;2.80;;
10174;SDS011;18221;38.704;0.152;2022-08-21T00:53:23;6.20;;;2.70;;
10174;SDS011;18221;38.704;0.152;2022-08-21T00:55:55;4.93;;;2.80;;
10174;SDS011;18221;38.704;0.152;2022-08-21T00:58:25;4.73;;;2.80;;
10174;SDS011;18221;38.704;0.152;2022-08-21T01:00:56;5.00;;;3.00;;
10174;SDS011;18221;38.704;0.152;2022-08-21T01:03:27;3.83;;;2.67;;
10174;SDS011;18221;38.704;0.152;2022-08-21T01:05:55;5.60;;;2.90;;
10174;SDS011;18221;38.704;0.152;2022-08-21T01:08:23;4.97;;;2.90;;
10174;SDS011;18221;38.704;0.152;2022-08-21T01:10:55;6.50;;;3.27;;
10174;SDS011;18221;38.704;0.152;2022-08-21T01:13:26;3.87;;;2.63;;
10174;SDS011;18221;38.704;0.152;2022-08-21T01:15:59;4.27;;;2.57;;
10174;SDS011;18221;38.704;0.152;2022-08-21T01:18:31;5.20;;;2.90;;
10174;SDS011;18221;38.704;0.152;2022-08-21T01:21:02;6.77;;;3.00;;
10174;SDS011;18221;38.704;0.152;2022-08-21T01:23:34;4.13;;;2.80;;
10174;SDS011;18221;38.704;0.152;2022-08-21T01:26:05;4.60;;;3.10;;
10174;SDS011;18221;38.704;0.152;2022-08-21T01:28:37;5.43;;;2.87;;
10174;SDS011;18221;38.704;0.152;2022-08-21T01:31:11;3.20;;;2.70;;
10174;SDS011;18221;38.704;0.152;2022-08-21T01:33:41;7.97;;;3.07;;
10174;SDS011;18221;38.704;0.152;2022-08-21T01:36:10;9.03;;;3.30;;
10174;SDS011;18221;38.704;0.152;2022-08-21T01:38:38;4.60;;;2.90;;
10174;SDS011;18221;38.704;0.152;2022-08-21T01:41:07;3.90;;;3.00;;
10174;SDS011;18221;38.704;0.152;2022-08-21T01:43:35;6.67;;;3.17;;
10174;SDS011;18221;38.704;0.152;2022-08-21T01:46:03;6.63;;;3.13;;
10174;SDS011;18221;38.704;0.152;2022-08-21T01:48:32;5.57;;;2.83;;
10174;SDS011;18221;38.704;0.152;2022-08-21T01:51:00;2.93;;;2.67;;
10174;SDS011;18221;38.704;0.152;2022-08-21T01:53:30;4.90;;;3.03;;
10174;SDS011;18221;38.704;0.152;2022-08-21T01:55:59;5.53;;;2.90;;
10174;SDS011;18221;38.704;0.152;2022-08-21T01:58:27;4.87;;;3.00;;
10174;SDS011;18221;38.704;0.152;2022-08-21T02:00:55;4.03;;;3.10;;
10174;SDS011;18221;38.704;0.152;2022-08-21T02:03:23;7.00;;;3.20;;
10174;SDS011;18221;38.704;0.152;2022-08-21T02:05:51;3.73;;;2.73;;
10174;SDS011;18221;38.704;0.152;2022-08-21T02:08:19;4.30;;;2.90;;
10174;SDS011;18221;38.704;0.152;2022-08-21T02:10:50;3.30;;;3.00;;
10174;SDS011;18221;38.704;0.152;2022-08-21T02:13:18;4.60;;;2.80;;
10174;SDS011;18221;38.704;0.152;2022-08-21T02:15:47;4.70;;;3.07;;
10174;SDS011;18221;38.704;0.152;2022-08-21T02:18:15;5.53;;;3.10;;
10174;SDS011;18221;38.704;0.152;2022-08-21T02:20:44;4.57;;;3.23;;
10174;SDS011;18221;38.704;0.152;2022-08-21T02:23:15;4.87;;;3.67;;
10174;SDS011;18221;38.704;0.152;2022-08-21T02:25:43;5.67;;;3.43;;
10174;SDS011;18221;38.704;0.152;2022-08-21T02:28:13;9.03;;;3.17;;
10174;SDS011;18221;38.704;0.152;2022-08-21T02:30:46;3.57;;;2.47;;
10174;SDS011;18221;38.704;0.152;2022-08-21T02:33:16;3.33;;;2.73;;
10174;SDS011;18221;38.704;0.152;2022-08-21T02:35:44;3.63;;;2.87;;
10174;SDS011;18221;38.704;0.152;2022-08-21T02:38:14;5.00;;;2.90;;
10174;SDS011;18221;38.704;0.152;2022-08-21T02:40:46;4.13;;;3.30;;
10174;SDS011;18221;38.704;0.152;2022-08-21T02:43:18;5.20;;;2.90;;
10174;SDS011;18221;38.704;0.152;2022-08-21T02:45:49;4.60;;;3.03;;
10174;SDS011;18221;38.704;0.152;2022-08-21T02:48:19;3.93;;;2.67;;
10174;SDS011;18221;38.704;0.152;2022-08-21T02:50:53;4.07;;;2.90;;
10174;SDS011;18221;38.704;0.152;2022-08-21T02:53:25;5.83;;;3.00;;
10174;SDS011;18221;38.704;0.152;2022-08-21T02:55:54;4.53;;;3.00;;
10174;SDS011;18221;38.704;0.152;2022-08-21T02:58:28;6.57;;;3.00;;
10174;SDS011;18221;38.704;0.152;2022-08-21T03:00:58;5.03;;;3.00;;
10174;SDS011;18221;38.704;0.152;2022-08-21T03:03:27;7.73;;;3.13;;
10174;SDS011;18221;38.704;0.152;2022-08-21T03:05:55;6.17;;;3.57;;
10174;SDS011;18221;38.704;0.152;2022-08-21T03:08:24;4.90;;;2.97;;
10174;SDS011;18221;38.704;0.152;2022-08-21T03:10:52;3.53;;;3.07;;
10174;SDS011;18221;38.704;0.152;2022-08-21T03:13:20;3.73;;;3.00;;
10174;SDS011;18221;38.704;0.152;2022-08-21T03:15:50;3.73;;;2.97;;
10174;SDS011;18221;38.704;0.152;2022-08-21T03:18:18;6.03;;;3.13;;
10174;SDS011;18221;38.704;0.152;2022-08-21T03:20:46;4.60;;;2.93;;
10174;SDS011;18221;38.704;0.152;2022-08-21T03:23:15;4.13;;;3.13;;
10174;SDS011;18221;38.704;0.152;2022-08-21T03:25:44;3.93;;;2.70;;
10174;SDS011;18221;38.704;0.152;2022-08-21T03:28:16;4.70;;;2.90;;
10174;SDS011;18221;38.704;0.152;2022-08-21T03:30:49;5.53;;;3.10;;
10174;SDS011;18221;38.704;0.152;2022-08-21T03:33:19;6.00;;;3.30;;
10174;SDS011;18221;38.704;0.152;2022-08-21T03:35:49;4.23;;;3.13;;
10174;SDS011;18221;38.704;0.152;2022-08-21T03:38:26;5.53;;;3.33;;
10174;SDS011;18221;38.704;0.152;2022-08-21T03:40:56;4.03;;;3.23;;
10174;SDS011;18221;38.704;0.152;2022-08-21T03:43:26;4.40;;;2.73;;
10174;SDS011;18221;38.704;0.152;2022-08-21T03:45:55;4.10;;;3.23;;
10174;SDS011;18221;38.704;0.152;2022-08-21T03:48:23;3.70;;;2.87;;
10174;SDS011;18221;38.704;0.152;2022-08-21T03:50:51;4.13;;;3.00;;
10174;SDS011;18221;38.704;0.152;2022-08-21T03:53:20;4.20;;;2.77;;
10174;SDS011;18221;38.704;0.152;2022-08-21T03:55:49;5.37;;;3.07;;
10174;SDS011;18221;38.704;0.152;2022-08-21T03:58:20;6.13;;;2.97;;
10174;SDS011;18221;38.704;0.152;2022-08-21T04:00:51;4.93;;;3.00;;
10174;SDS011;18221;38.704;0.152;2022-08-21T04:03:23;6.57;;;3.20;;
10174;SDS011;18221;38.704;0.152;2022-08-21T04:05:52;3.30;;;3.00;;
10174;SDS011;18221;38.704;0.152;2022-08-21T04:08:20;5.13;;;3.07;;
10174;SDS011;18221;38.704;0.152;2022-08-21T04:10:49;3.77;;;3.00;;
10174;SDS011;18221;38.704;0.152;2022-08-21T04:13:21;6.33;;;3.47;;
10174;SDS011;18221;38.704;0.152;2022-08-21T04:15:49;4.77;;;3.20;;
10174;SDS011;18221;38.704;0.152;2022-08-21T04:18:17;5.70;;;3.40;;
10174;SDS011;18221;38.704;0.152;2022-08-21T04:20:47;8.80;;;3.20;;
10174;SDS011;18221;38.704;0.152;2022-08-21T04:23:19;3.63;;;2.70;;
10174;SDS011;18221;38.704;0.152;2022-08-21T04:25:48;4.83;;;3.13;;
10174;SDS011;18221;38.704;0.152;2022-08-21T04:28:17;4.87;;;2.80;;
10174;SDS011;18221;38.704;0.152;2022-08-21T04:30:45;4.90;;;3.03;;
10174;SDS011;18221;38.704;0.152;2022-08-21T04:33:13;6.03;;;3.30;;
10174;SDS011;18221;38.704;0.152;2022-08-21T04:35:41;7.20;;;2.70;;
10174;SDS011;18221;38.704;0.152;2022-08-21T04:38:11;5.03;;;2.80;;
10174;SDS011;18221;38.704;0.152;2022-08-21T04:40:39;5.50;;;2.90;;
10174;SDS011;18221;38.704;0.152;2022-08-21T04:43:08;5.67;;;3.17;;
10174;SDS011;18221;38.704;0.152;2022-08-21T04:45:38;4.93;;;2.90;;
10174;SDS011;18221;38.704;0.152;2022-08-21T04:48:09;3.33;;;2.80;;
10174;SDS011;18221;38.704;0.152;2022-08-21T04:50:41;3.83;;;2.87;;
10174;SDS011;18221;38.704;0.152;2022-08-21T04:53:19;4.37;;;3.00;;
10174;SDS011;18221;38.704;0.152;2022-08-21T04:55:53;4.83;;;2.70;;
10174;SDS011;18221;38.704;0.152;2022-08-21T04:58:24;5.87;;;3.10;;
10174;SDS011;18221;38.704;0.152;2022-08-21T05:00:54;5.57;;;2.90;;
10174;SDS011;18221;38.704;0.152;2022-08-21T05:03:24;6.50;;;3.00;;
10174;SDS011;18221;38.704;0.152;2022-08-21T05:05:52;2.97;;;2.67;;
10174;SDS011;18221;38.704;0.152;2022-08-21T05:08:23;3.20;;;2.60;;
10174;SDS011;18221;38.704;0.152;2022-08-21T05:10:54;5.27;;;2.67;;
10174;SDS011;18221;38.704;0.152;2022-08-21T05:13:22;3.00;;;2.70;;
10174;SDS011;18221;38.704;0.152;2022-08-21T05:15:50;5.33;;;2.60;;
10174;SDS011;18221;38.704;0.152;2022-08-21T05:18:18;4.80;;;2.70;;
10174;SDS011;18221;38.704;0.152;2022-08-21T05:20:46;4.37;;;2.47;;
10174;SDS011;18221;38.704;0.152;2022-08-21T05:23:14;3.37;;;2.43;;
10174;SDS011;18221;38.704;0.152;2022-08-21T05:25:44;4.07;;;2.50;;
10174;SDS011;18221;38.704;0.152;2022-08-21T05:28:11;4.37;;;2.60;;
10174;SDS011;18221;38.704;0.152;2022-08-21T05:30:39;5.60;;;2.50;;
10174;SDS011;18221;38.704;0.152;2022-08-21T05:33:07;4.90;;;2.60;;
10174;SDS011;18221;38.704;0.152;2022-08-21T05:35:35;5.00;;;2.63;;
10174;SDS011;18221;38.704;0.152;2022-08-21T05:38:05;3.10;;;2.40;;
10174;SDS011;18221;38.704;0.152;2022-08-21T05:40:33;6.03;;;2.60;;
10174;SDS011;18221;38.704;0.152;2022-08-21T05:43:03;4.27;;;2.50;;
10174;SDS011;18221;38.704;0.152;2022-08-21T05:45:31;5.43;;;2.40;;
10174;SDS011;18221;38.704;0.152;2022-08-21T05:48:05;3.70;;;2.70;;
10174;SDS011;18221;38.704;0.152;2022-08-21T05:50:34;4.07;;;2.80;;
10174;SDS011;18221;38.704;0.152;2022-08-21T05:53:03;5.20;;;2.33;;
10174;SDS011;18221;38.704;0.152;2022-08-21T05:55:31;3.33;;;2.53;;
10174;SDS011;18221;38.704;0.152;2022-08-21T05:57:59;3.07;;;2.70;;
10174;SDS011;18221;38.704;0.152;2022-08-21T06:00:29;4.37;;;2.67;;
10174;SDS011;18221;38.704;0.152;2022-08-21T06:02:57;3.90;;;3.07;;
10174;SDS011;18221;38.704;0.152;2022-08-21T06:05:25;14.20;;;3.00;;
10174;SDS011;18221;38.704;0.152;2022-08-21T06:07:53;3.37;;;2.60;;
10174;SDS011;18221;38.704;0.152;2022-08-21T06:10:21;7.67;;;2.93;;
10174;SDS011;18221;38.704;0.152;2022-08-21T06:12:52;3.30;;;2.70;;
10174;SDS011;18221;38.704;0.152;2022-08-21T06:15:20;4.80;;;2.60;;
10174;SDS011;18221;38.704;0.152;2022-08-21T06:17:50;5.20;;;3.00;;
10174;SDS011;18221;38.704;0.152;2022-08-21T06:20:19;4.23;;;2.70;;
10174;SDS011;18221;38.704;0.152;2022-08-21T06:22:48;6.73;;;3.03;;
10174;SDS011;18221;38.704;0.152;2022-08-21T06:25:16;3.90;;;2.50;;
10174;SDS011;18221;38.704;0.152;2022-08-21T06:27:45;4.33;;;2.80;;
10174;SDS011;18221;38.704;0.152;2022-08-21T06:30:13;4.87;;;2.80;;
10174;SDS011;18221;38.704;0.152;2022-08-21T06:32:42;6.53;;;2.77;;
10174;SDS011;18221;38.704;0.152;2022-08-21T06:35:11;7.50;;;3.20;;
10174;SDS011;18221;38.704;0.152;2022-08-21T06:37:39;5.97;;;2.53;;
10174;SDS011;18221;38.704;0.152;2022-08-21T06:40:08;4.70;;;2.80;;
10174;SDS011;18221;38.704;0.152;2022-08-21T06:42:37;3.87;;;2.93;;
10174;SDS011;18221;38.704;0.152;2022-08-21T06:45:05;3.07;;;2.77;;
10174;SDS011;18221;38.704;0.152;2022-08-21T06:47:33;4.23;;;2.77;;
10174;SDS011;18221;38.704;0.152;2022-08-21T06:50:02;5.57;;;2.80;;
10174;SDS011;18221;38.704;0.152;2022-08-21T06:52:34;3.73;;;2.53;;
10174;SDS011;18221;38.704;0.152;2022-08-21T06:55:02;4.47;;;2.60;;
10174;SDS011;18221;38.704;0.152;2022-08-21T06:57:33;3.97;;;2.57;;
10174;SDS011;18221;38.704;0.152;2022-08-21T07:00:02;4.13;;;2.53;;
10174;SDS011;18221;38.704;0.152;2022-08-21T07:02:32;4.03;;;2.83;;
10174;SDS011;18221;38.704;0.152;2022-08-21T07:05:00;3.43;;;2.50;;
10174;SDS011;18221;38.704;0.152;2022-08-21T07:07:28;3.57;;;2.50;;
10174;SDS011;18221;38.704;0.152;2022-08-21T07:09:57;6.13;;;2.50;;
10174;SDS011;18221;38.704;0.152;2022-08-21T07:12:25;5.50;;;2.37;;
10174;SDS011;18221;38.704;0.152;2022-08-21T07:14:53;5.53;;;2.53;;
10174;SDS011;18221;38.704;0.152;2022-08-21T07:17:21;3.33;;;2.20;;
10174;SDS011;18221;38.704;0.152;2022-08-21T07:19:49;4.17;;;2.00;;
10174;SDS011;18221;38.704;0.152;2022-08-21T07:22:18;3.07;;;2.30;;
10174;SDS011;18221;38.704;0.152;2022-08-21T07:24:47;3.17;;;2.10;;
10174;SDS011;18221;38.704;0.152;2022-08-21T07:27:17;3.10;;;1.90;;
10174;SDS011;18221;38.704;0.152;2022-08-21T07:29:44;2.67;;;2.10;;
10174;SDS011;18221;38.704;0.152;2022-08-21T07:32:12;5.55;;;2.03;;
10174;SDS011;18221;38.704;0.152;2022-08-21T07:34:42;3.67;;;2.10;;
10174;SDS011;18221;38.704;0.152;2022-08-21T07:37:10;3.58;;;2.15;;
10174;SDS011;18221;38.704;0.152;2022-08-21T07:39:38;3.63;;;2.17;;
10174;SDS011;18221;38.704;0.152;2022-08-21T07:42:06;4.43;;;1.85;;
10174;SDS011;18221;38.704;0.152;2022-08-21T07:44:36;4.25;;;2.10;;
10174;SDS011;18221;38.704;0.152;2022-08-21T07:47:04;2.47;;;2.13;;
10174;SDS011;18221;38.704;0.152;2022-08-21T07:49:32;3.13;;;2.40;;
10174;SDS011;18221;38.704;0.152;2022-08-21T07:52:00;3.45;;;2.00;;
10174;SDS011;18221;38.704;0.152;2022-08-21T07:54:29;3.95;;;2.00;;
10174;SDS011;18221;38.704;0.152;2022-08-21T07:56:57;2.10;;;1.80;;
10174;SDS011;18221;38.704;0.152;2022-08-21T07:59:24;3.72;;;1.98;;
10174;SDS011;18221;38.704;0.152;2022-08-21T08:01:54;2.95;;;1.90;;
10174;SDS011;18221;38.704;0.152;2022-08-21T08:04:22;4.03;;;2.25;;
10174;SDS011;18221;38.704;0.152;2022-08-21T08:06:51;4.63;;;2.17;;
10174;SDS011;18221;38.704;0.152;2022-08-21T08:09:19;2.85;;;2.10;;
10174;SDS011;18221;38.704;0.152;2022-08-21T08:11:47;3.58;;;2.25;;
10174;SDS011;18221;38.704;0.152;2022-08-21T08:14:15;3.35;;;2.20;;
10174;SDS011;18221;38.704;0.152;2022-08-21T08:16:43;4.00;;;2.10;;
10174;SDS011;18221;38.704;0.152;2022-08-21T08:19:12;2.92;;;2.33;;
10174;SDS011;18221;38.704;0.152;2022-08-21T08:21:40;3.80;;;2.70;;
10174;SDS011;18221;38.704;0.152;2022-08-21T08:24:08;5.47;;;2.50;;
10174;SDS011;18221;38.704;0.152;2022-08-21T08:26:36;5.82;;;2.70;;
10174;SDS011;18221;38.704;0.152;2022-08-21T08:29:04;6.22;;;2.60;;
10174;SDS011;18221;38.704;0.152;2022-08-21T08:31:32;3.50;;;2.50;;
10174;SDS011;18221;38.704;0.152;2022-08-21T08:34:00;3.78;;;2.47;;
10174;SDS011;18221;38.704;0.152;2022-08-21T08:36:33;5.25;;;2.58;;
10174;SDS011;18221;38.704;0.152;2022-08-21T08:39:03;5.60;;;3.08;;
10174;SDS011;18221;38.704;0.152;2022-08-21T08:41:32;7.32;;;2.53;;
10174;SDS011;18221;38.704;0.152;2022-08-21T08:44:03;5.25;;;2.75;;
10174;SDS011;18221;38.704;0.152;2022-08-21T08:46:34;5.95;;;3.22;;
10174;SDS011;18221;38.704;0.152;2022-08-21T08:49:09;5.22;;;2.80;;
10174;SDS011;18221;38.704;0.152;2022-08-21T08:51:47;4.57;;;2.72;;
10174;SDS011;18221;38.704;0.152;2022-08-21T08:54:28;4.00;;;2.58;;
10174;SDS011;18221;38.704;0.152;2022-08-21T08:57:00;3.97;;;2.60;;
10174;SDS011;18221;38.704;0.152;2022-08-21T08:59:38;3.85;;;3.05;;
10174;SDS011;18221;38.704;0.152;2022-08-21T09:02:09;4.18;;;3.00;;
10174;SDS011;18221;38.704;0.152;2022-08-21T09:04:40;3.17;;;2.70;;
10174;SDS011;18221;38.704;0.152;2022-08-21T09:07:16;4.15;;;2.70;;
10174;SDS011;18221;38.704;0.152;2022-08-21T09:10:03;5.13;;;2.92;;
10174;SDS011;18221;38.704;0.152;2022-08-21T09:12:41;4.47;;;2.80;;
10174;SDS011;18221;38.704;0.152;2022-08-21T09:15:25;4.63;;;2.72;;
10174;SDS011;18221;38.704;0.152;2022-08-21T09:21:02;4.13;;;3.05;;
10174;SDS011;18221;38.704;0.152;2022-08-21T09:23:46;8.23;;;3.40;;
10174;SDS011;18221;38.704;0.152;2022-08-21T09:26:25;6.82;;;3.38;;
10174;SDS011;18221;38.704;0.152;2022-08-21T09:28:59;3.58;;;2.88;;
10174;SDS011;18221;38.704;0.152;2022-08-21T09:31:28;7.00;;;3.22;;
10174;SDS011;18221;38.704;0.152;2022-08-21T09:34:03;7.53;;;3.20;;
10174;SDS011;18221;38.704;0.152;2022-08-21T09:36:37;5.07;;;3.28;;
10174;SDS011;18221;38.704;0.152;2022-08-21T09:39:11;4.22;;;3.33;;
10174;SDS011;18221;38.704;0.152;2022-08-21T09:41:49;5.78;;;3.92;;
10174;SDS011;18221;38.704;0.152;2022-08-21T09:44:24;6.00;;;3.38;;
10174;SDS011;18221;38.704;0.152;2022-08-21T09:46:55;7.55;;;3.83;;
10174;SDS011;18221;38.704;0.152;2022-08-21T09:49:27;5.88;;;3.42;;
10174;SDS011;18221;38.704;0.152;2022-08-21T09:51:56;6.07;;;3.40;;
10174;SDS011;18221;38.704;0.152;2022-08-21T09:54:28;7.18;;;3.13;;
10174;SDS011;18221;38.704;0.152;2022-08-21T09:57:05;7.93;;;3.13;;
10174;SDS011;18221;38.704;0.152;2022-08-21T10:00:08;4.13;;;2.88;;
10174;SDS011;18221;38.704;0.152;2022-08-21T10:02:44;8.07;;;3.58;;
10174;SDS011;18221;38.704;0.152;2022-08-21T10:05:16;8.18;;;3.20;;
10174;SDS011;18221;38.704;0.152;2022-08-21T10:07:45;5.55;;;2.72;;
10174;SDS011;18221;38.704;0.152;2022-08-21T10:10:16;4.53;;;3.20;;
10174;SDS011;18221;38.704;0.152;2022-08-21T10:12:49;4.43;;;2.70;;
10174;SDS011;18221;38.704;0.152;2022-08-21T10:15:28;5.25;;;2.78;;
10174;SDS011;18221;38.704;0.152;2022-08-21T10:18:10;2.83;;;2.53;;
10174;SDS011;18221;38.704;0.152;2022-08-21T10:20:49;3.10;;;2.80;;
10174;SDS011;18221;38.704;0.152;2022-08-21T10:23:37;3.67;;;2.70;;
10174;SDS011;18221;38.704;0.152;2022-08-21T10:26:24;4.70;;;2.80;;
10174;SDS011;18221;38.704;0.152;2022-08-21T10:29:14;2.85;;;2.55;;
10174;SDS011;18221;38.704;0.152;2022-08-21T10:32:00;5.20;;;2.50;;
10174;SDS011;18221;38.704;0.152;2022-08-21T10:34:46;3.88;;;2.65;;
10174;SDS011;18221;38.704;0.152;2022-08-21T10:37:27;3.80;;;2.60;;
10174;SDS011;18221;38.704;0.152;2022-08-21T10:40:15;6.18;;;2.85;;
10174;SDS011;18221;38.704;0.152;2022-08-21T10:42:59;4.18;;;2.53;;
10174;SDS011;18221;38.704;0.152;2022-08-21T10:45:46;3.78;;;2.50;;
10174;SDS011;18221;38.704;0.152;2022-08-21T10:48:28;3.85;;;2.63;;
10174;SDS011;18221;38.704;0.152;2022-08-21T10:51:06;4.55;;;2.55;;
10174;SDS011;18221;38.704;0.152;2022-08-21T10:56:38;3.58;;;2.30;;
10174;SDS011;18221;38.704;0.152;2022-08-21T10:59:20;8.93;;;3.28;;
10174;SDS011;18221;38.704;0.152;2022-08-21T11:01:56;5.57;;;2.50;;
10174;SDS011;18221;38.704;0.152;2022-08-21T11:04:48;4.10;;;2.55;;
10174;SDS011;18221;38.704;0.152;2022-08-21T11:07:26;4.25;;;2.50;;
10174;SDS011;18221;38.704;0.152;2022-08-21T11:10:03;4.22;;;2.40;;
10174;SDS011;18221;38.704;0.152;2022-08-21T11:12:42;6.82;;;2.70;;
10174;SDS011;18221;38.704;0.152;2022-08-21T11:15:22;5.78;;;2.65;;
10174;SDS011;18221;38.704;0.152;2022-08-21T11:18:04;4.15;;;2.55;;
10174;SDS011;18221;38.704;0.152;2022-08-21T11:20:54;4.22;;;2.65;;
10174;SDS011;18221;38.704;0.152;2022-08-21T11:23:36;3.92;;;2.90;;
10174;SDS011;18221;38.704;0.152;2022-08-21T11:26:13;8.38;;;2.85;;
10174;SDS011;18221;38.704;0.152;2022-08-21T11:28:47;4.75;;;2.83;;
10174;SDS011;18221;38.704;0.152;2022-08-21T11:31:33;4.15;;;2.83;;
10174;SDS011;18221;38.704;0.152;2022-08-21T11:34:21;7.18;;;3.25;;
10174;SDS011;18221;38.704;0.152;2022-08-21T11:37:07;6.35;;;2.95;;
10174;SDS011;18221;38.704;0.152;2022-08-21T11:39:49;5.25;;;3.03;;
10174;SDS011;18221;38.704;0.152;2022-08-21T11:42:28;3.78;;;2.53;;
10174;SDS011;18221;38.704;0.152;2022-08-21T11:45:10;4.55;;;2.63;;
10174;SDS011;18221;38.704;0.152;2022-08-21T11:47:53;6.20;;;2.67;;
10174;SDS011;18221;38.704;0.152;2022-08-21T11:50:31;4.65;;;2.35;;
10174;SDS011;18221;38.704;0.152;2022-08-21T11:53:04;4.13;;;2.50;;
10174;SDS011;18221;38.704;0.152;2022-08-21T11:55:40;4.18;;;2.67;;
10174;SDS011;18221;38.704;0.152;2022-08-21T11:58:15;5.53;;;2.75;;
10174;SDS011;18221;38.704;0.152;2022-08-21T12:00:52;3.60;;;2.60;;
10174;SDS011;18221;38.704;0.152;2022-08-21T12:03:26;5.43;;;2.50;;
10174;SDS011;18221;38.704;0.152;2022-08-21T12:05:58;5.55;;;2.30;;
10174;SDS011;18221;38.704;0.152;2022-08-21T12:08:30;5.10;;;2.63;;
10174;SDS011;18221;38.704;0.152;2022-08-21T12:11:03;3.42;;;2.47;;
10174;SDS011;18221;38.704;0.152;2022-08-21T12:13:35;6.35;;;2.63;;
10174;SDS011;18221;38.704;0.152;2022-08-21T12:16:08;3.67;;;2.40;;
10174;SDS011;18221;38.704;0.152;2022-08-21T12:18:41;4.43;;;2.20;;
10174;SDS011;18221;38.704;0.152;2022-08-21T12:21:23;4.32;;;2.00;;
10174;SDS011;18221;38.704;0.152;2022-08-21T12:24:04;4.30;;;1.95;;
10174;SDS011;18221;38.704;0.152;2022-08-21T12:26:48;6.82;;;2.20;;
10174;SDS011;18221;38.704;0.152;2022-08-21T12:29:23;4.18;;;1.95;;
10174;SDS011;18221;38.704;0.152;2022-08-21T12:31:58;3.55;;;1.83;;
10174;SDS011;18221;38.704;0.152;2022-08-21T12:34:33;4.05;;;1.58;;
10174;SDS011;18221;38.704;0.152;2022-08-21T12:37:11;4.68;;;2.20;;
10174;SDS011;18221;38.704;0.152;2022-08-21T12:39:49;5.90;;;2.00;;
10174;SDS011;18221;38.704;0.152;2022-08-21T12:42:22;8.95;;;2.70;;
10174;SDS011;18221;38.704;0.152;2022-08-21T12:45:03;4.03;;;1.80;;
10174;SDS011;18221;38.704;0.152;2022-08-21T12:47:43;5.53;;;2.20;;
10174;SDS011;18221;38.704;0.152;2022-08-21T12:50:21;6.78;;;2.20;;
10174;SDS011;18221;38.704;0.152;2022-08-21T12:53:02;4.68;;;1.63;;
10174;SDS011;18221;38.704;0.152;2022-08-21T12:55:40;7.63;;;2.50;;
10174;SDS011;18221;38.704;0.152;2022-08-21T12:58:16;4.85;;;1.70;;
10174;SDS011;18221;38.704;0.152;2022-08-21T13:00:49;6.35;;;1.92;;
10174;SDS011;18221;38.704;0.152;2022-08-21T13:03:28;4.55;;;1.90;;
10174;SDS011;18221;38.704;0.152;2022-08-21T13:05:58;5.28;;;1.77;;
10174;SDS011;18221;38.704;0.152;2022-08-21T13:08:28;6.45;;;2.20;;
10174;SDS011;18221;38.704;0.152;2022-08-21T13:10:56;4.68;;;1.88;;
10174;SDS011;18221;38.704;0.152;2022-08-21T13:13:28;3.60;;;1.83;;
10174;SDS011;18221;38.704;0.152;2022-08-21T13:15:57;4.90;;;2.00;;
10174;SDS011;18221;38.704;0.152;2022-08-21T13:18:32;4.47;;;1.95;;
10174;SDS011;18221;38.704;0.152;2022-08-21T13:21:05;3.42;;;1.77;;
10174;SDS011;18221;38.704;0.152;2022-08-21T13:23:37;7.10;;;2.13;;
10174;SDS011;18221;38.704;0.152;2022-08-21T13:26:11;3.83;;;2.15;;
10174;SDS011;18221;38.704;0.152;2022-08-21T13:28:41;7.28;;;1.95;;
10174;SDS011;18221;38.704;0.152;2022-08-21T13:31:12;6.13;;;2.10;;
10174;SDS011;18221;38.704;0.152;2022-08-21T13:33:51;5.13;;;1.83;;
10174;SDS011;18221;38.704;0.152;2022-08-21T13:36:24;5.55;;;2.10;;
10174;SDS011;18221;38.704;0.152;2022-08-21T13:38:56;5.03;;;1.77;;
10174;SDS011;18221;38.704;0.152;2022-08-21T13:41:26;7.47;;;1.80;;
10174;SDS011;18221;38.704;0.152;2022-08-21T13:43:59;5.13;;;2.10;;
10174;SDS011;18221;38.704;0.152;2022-08-21T13:46:32;4.85;;;1.92;;
10174;SDS011;18221;38.704;0.152;2022-08-21T13:49:05;5.60;;;1.98;;
10174;SDS011;18221;38.704;0.152;2022-08-21T13:51:36;6.18;;;2.20;;
10174;SDS011;18221;38.704;0.152;2022-08-21T13:54:13;4.65;;;2.25;;
10174;SDS011;18221;38.704;0.152;2022-08-21T13:56:48;4.43;;;1.88;;
10174;SDS011;18221;38.704;0.152;2022-08-21T13:59:26;5.63;;;1.95;;
10174;SDS011;18221;38.704;0.152;2022-08-21T14:01:57;6.82;;;2.22;;
10174;SDS011;18221;38.704;0.152;2022-08-21T14:04:35;5.18;;;1.80;;
10174;SDS011;18221;38.704;0.152;2022-08-21T14:07:15;5.53;;;1.90;;
10174;SDS011;18221;38.704;0.152;2022-08-21T14:09:47;7.47;;;2.05;;
10174;SDS011;18221;38.704;0.152;2022-08-21T14:12:16;4.30;;;1.83;;
10174;SDS011;18221;38.704;0.152;2022-08-21T14:14:51;6.93;;;2.22;;
10174;SDS011;18221;38.704;0.152;2022-08-21T14:17:27;5.18;;;1.88;;
10174;SDS011;18221;38.704;0.152;2022-08-21T14:19:57;5.03;;;1.98;;
10174;SDS011;18221;38.704;0.152;2022-08-21T14:22:32;4.03;;;2.05;;
10174;SDS011;18221;38.704;0.152;2022-08-21T14:25:07;3.83;;;1.75;;
10174;SDS011;18221;38.704;0.152;2022-08-21T14:27:42;5.97;;;2.05;;
10174;SDS011;18221;38.704;0.152;2022-08-21T14:30:17;6.60;;;2.00;;
10174;SDS011;18221;38.704;0.152;2022-08-21T14:32:53;6.28;;;2.72;;
10174;SDS011;18221;38.704;0.152;2022-08-21T14:35:22;5.50;;;2.10;;
10174;SDS011;18221;38.704;0.152;2022-08-21T14:37:51;5.40;;;2.30;;
10174;SDS011;18221;38.704;0.152;2022-08-21T14:40:22;6.60;;;2.90;;
10174;SDS011;18221;38.704;0.152;2022-08-21T14:42:51;6.03;;;2.80;;
10174;SDS011;18221;38.704;0.152;2022-08-21T14:45:23;5.72;;;3.25;;
10174;SDS011;18221;38.704;0.152;2022-08-21T14:47:56;6.28;;;2.63;;
10174;SDS011;18221;38.704;0.152;2022-08-21T14:50:25;6.97;;;2.88;;
10174;SDS011;18221;38.704;0.152;2022-08-21T14:52:55;6.75;;;2.50;;
10174;SDS011;18221;38.704;0.152;2022-08-21T14:55:23;5.15;;;2.00;;
10174;SDS011;18221;38.704;0.152;2022-08-21T14:57:52;3.92;;;2.10;;
10174;SDS011;18221;38.704;0.152;2022-08-21T15:00:23;5.47;;;2.92;;
10174;SDS011;18221;38.704;0.152;2022-08-21T15:02:52;4.88;;;2.10;;
10174;SDS011;18221;38.704;0.152;2022-08-21T15:05:20;5.70;;;2.63;;
10174;SDS011;18221;38.704;0.152;2022-08-21T15:07:47;5.88;;;2.20;;
10174;SDS011;18221;38.704;0.152;2022-08-21T15:10:17;5.97;;;2.80;;
10174;SDS011;18221;38.704;0.152;2022-08-21T15:12:45;4.78;;;2.03;;
10174;SDS011;18221;38.704;0.152;2022-08-21T15:15:13;4.40;;;2.20;;
10174;SDS011;18221;38.704;0.152;2022-08-21T15:17:41;6.70;;;1.88;;
10174;SDS011;18221;38.704;0.152;2022-08-21T15:20:09;4.68;;;1.85;;
10174;SDS011;18221;38.704;0.152;2022-08-21T15:22:37;5.10;;;1.60;;
10174;SDS011;18221;38.704;0.152;2022-08-21T15:25:05;6.15;;;1.80;;
10174;SDS011;18221;38.704;0.152;2022-08-21T15:27:36;6.00;;;1.90;;
10174;SDS011;18221;38.704;0.152;2022-08-21T15:30:05;5.25;;;1.65;;